createdAt,value
2018-09-01T00:00:35.041Z,0.00
2018-09-01T00:01:35.230Z,0.00
2018-09-01T00:02:35.418Z,0.00
2018-09-01T00:03:35.617Z,0.00
2018-09-01T00:04:35.804Z,0.00
2018-09-01T00:05:35.986Z,0.00
2018-09-01T00:06:36.177Z,0.00
2018-09-01T00:07:36.364Z,0.00
2018-09-01T00:08:36.557Z,0.00
2018-09-01T00:09:36.743Z,0.00
2018-09-01T00:10:36.928Z,0.00
2018-09-01T00:11:37.117Z,0.00
2018-09-01T00:12:37.309Z,0.00
2018-09-01T00:13:37.495Z,0.00
2018-09-01T00:14:37.676Z,0.00
2018-09-01T00:15:37.865Z,0.00
2018-09-01T00:16:38.050Z,0.00
2018-09-01T00:17:38.234Z,0.00
2018-09-01T00:18:38.432Z,0.00
2018-09-01T00:19:38.614Z,0.00
2018-09-01T00:20:38.802Z,0.00
2018-09-01T00:21:38.986Z,0.00
2018-09-01T00:22:39.178Z,0.00
2018-09-01T00:23:39.364Z,0.00
2018-09-01T00:24:39.554Z,0.00
2018-09-01T00:25:39.741Z,0.00
2018-09-01T00:26:39.926Z,0.00
2018-09-01T00:27:40.123Z,0.00
2018-09-01T00:28:40.318Z,0.00
2018-09-01T00:29:40.506Z,0.00
2018-09-01T00:30:40.785Z,0.00
2018-09-01T00:31:40.887Z,0.00
2018-09-01T00:32:41.127Z,0.00
2018-09-01T00:33:41.313Z,0.00
2018-09-01T00:34:41.501Z,0.00
2018-09-01T00:35:41.689Z,0.00
2018-09-01T00:36:41.873Z,0.00
2018-09-01T00:37:42.062Z,0.00
2018-09-01T00:38:42.265Z,0.00
2018-09-01T00:39:42.453Z,0.00
2018-09-01T00:40:42.627Z,0.00
2018-09-01T00:41:42.813Z,0.00
2018-09-01T00:42:43.002Z,0.00
2018-09-01T00:43:43.212Z,0.00
2018-09-01T00:44:43.407Z,0.00
2018-09-01T00:45:43.594Z,0.00
2018-09-01T00:46:43.778Z,0.00
2018-09-01T00:47:43.964Z,0.00
2018-09-01T00:48:44.150Z,0.00
2018-09-01T00:49:44.341Z,0.00
2018-09-01T00:50:44.522Z,0.00
2018-09-01T00:51:44.715Z,0.00
2018-09-01T00:52:44.899Z,0.00
2018-09-01T00:53:45.091Z,0.00
2018-09-01T00:54:45.281Z,0.00
2018-09-01T00:55:45.469Z,0.00
2018-09-01T00:56:45.654Z,0.00
2018-09-01T00:57:45.837Z,0.00
2018-09-01T00:58:46.026Z,0.00
2018-09-01T00:59:46.216Z,0.00
2018-09-01T01:00:46.398Z,0.00
2018-09-01T01:01:46.583Z,0.00
2018-09-01T01:02:46.772Z,0.00
2018-09-01T01:03:46.978Z,0.00
2018-09-01T01:04:47.161Z,0.00
2018-09-01T01:05:47.346Z,0.00
2018-09-01T01:06:47.533Z,0.00
2018-09-01T01:07:47.721Z,0.00
2018-09-01T01:08:47.907Z,0.00
2018-09-01T01:09:48.093Z,0.00
2018-09-01T01:10:48.299Z,0.00
2018-09-01T01:11:48.497Z,0.00
2018-09-01T01:12:48.673Z,0.00
2018-09-01T01:13:48.861Z,0.00
2018-09-01T01:14:49.049Z,0.00
2018-09-01T01:15:49.236Z,0.00
2018-09-01T01:16:49.422Z,0.00
2018-09-01T01:17:49.610Z,0.00
2018-09-01T01:18:49.800Z,0.00
2018-09-01T01:19:49.988Z,0.00
2018-09-01T01:20:50.177Z,0.00
2018-09-01T01:21:50.363Z,0.00
2018-09-01T01:22:50.541Z,0.00
2018-09-01T01:23:50.732Z,0.00
2018-09-01T01:24:50.918Z,0.00
2018-09-01T01:25:51.108Z,0.00
2018-09-01T01:26:51.294Z,0.00
2018-09-01T01:27:51.482Z,0.00
2018-09-01T01:28:51.663Z,0.00
2018-09-01T01:29:51.850Z,0.00
2018-09-01T01:30:52.036Z,0.00
2018-09-01T01:31:52.224Z,0.00
2018-09-01T01:32:52.423Z,0.00
2018-09-01T01:33:52.606Z,0.00
2018-09-01T01:34:52.793Z,0.00
2018-09-01T01:35:52.981Z,0.00
2018-09-01T01:36:53.179Z,0.00
2018-09-01T01:37:53.387Z,0.00
2018-09-01T01:38:53.563Z,0.00
2018-09-01T01:39:53.760Z,0.00
2018-09-01T01:40:53.947Z,0.00
2018-09-01T01:41:54.134Z,0.00
2018-09-01T01:42:54.316Z,0.00
2018-09-01T01:43:54.500Z,0.00
2018-09-01T01:44:54.694Z,0.00
2018-09-01T01:45:54.914Z,0.00
2018-09-01T01:46:55.057Z,0.00
2018-09-01T01:47:55.250Z,0.00
2018-09-01T01:48:55.436Z,0.00
2018-09-01T01:49:55.620Z,0.00
2018-09-01T01:50:55.833Z,0.00
2018-09-01T01:51:56.014Z,0.00
2018-09-01T01:52:56.205Z,0.00
2018-09-01T01:53:56.387Z,0.00
2018-09-01T01:54:56.568Z,0.00
2018-09-01T01:55:56.756Z,0.00
2018-09-01T01:56:56.951Z,0.00
2018-09-01T01:57:57.137Z,0.00
2018-09-01T01:58:57.317Z,0.00
2018-09-01T01:59:57.508Z,0.00
2018-09-01T02:00:57.696Z,0.00
2018-09-01T02:01:57.877Z,0.00
2018-09-01T02:02:58.068Z,0.00
2018-09-01T02:03:58.250Z,0.00
2018-09-01T02:04:58.438Z,0.00
2018-09-01T02:05:58.628Z,0.00
2018-09-01T02:06:58.806Z,0.00
2018-09-01T02:07:58.987Z,0.00
2018-09-01T02:08:59.177Z,0.00
2018-09-01T02:09:59.357Z,0.00
2018-09-01T02:10:59.548Z,0.00
2018-09-01T02:11:59.732Z,0.00
2018-09-01T02:12:59.913Z,0.00
2018-09-01T02:14:00.113Z,0.00
2018-09-01T02:15:00.290Z,0.00
2018-09-01T02:16:00.485Z,0.00
2018-09-01T02:17:00.669Z,0.00
2018-09-01T02:18:00.851Z,0.00
2018-09-01T02:19:01.034Z,0.00
2018-09-01T02:20:01.228Z,0.00
2018-09-01T02:21:01.419Z,0.00
2018-09-01T02:22:01.601Z,0.00
2018-09-01T02:23:01.782Z,0.00
2018-09-01T02:24:01.972Z,0.00
2018-09-01T02:25:02.162Z,0.00
2018-09-01T02:26:02.355Z,0.00
2018-09-01T02:27:02.553Z,0.00
2018-09-01T02:28:02.729Z,0.00
2018-09-01T02:29:02.918Z,0.00
2018-09-01T02:30:03.104Z,0.00
2018-09-01T02:31:03.289Z,0.00
2018-09-01T02:32:03.478Z,0.00
2018-09-01T02:33:03.664Z,0.00
2018-09-01T02:34:03.850Z,0.00
2018-09-01T02:35:04.033Z,0.00
2018-09-01T02:36:04.217Z,0.00
2018-09-01T02:37:04.409Z,0.00
2018-09-01T02:38:04.591Z,0.00
2018-09-01T02:39:04.780Z,0.00
2018-09-01T02:40:04.968Z,0.00
2018-09-01T02:41:05.171Z,0.00
2018-09-01T02:42:05.355Z,0.00
2018-09-01T02:43:05.538Z,0.00
2018-09-01T02:44:05.731Z,0.00
2018-09-01T02:45:05.916Z,0.00
2018-09-01T02:46:06.107Z,0.00
2018-09-01T02:47:06.300Z,0.00
2018-09-01T02:48:06.483Z,0.00
2018-09-01T02:49:06.669Z,0.00
2018-09-01T02:50:06.858Z,0.00
2018-09-01T02:51:07.041Z,0.00
2018-09-01T02:52:07.225Z,0.00
2018-09-01T02:53:07.409Z,0.00
2018-09-01T02:54:07.604Z,0.00
2018-09-01T02:55:07.791Z,0.00
2018-09-01T02:56:07.976Z,0.00
2018-09-01T02:57:08.160Z,0.00
2018-09-01T02:58:08.357Z,0.00
2018-09-01T02:59:08.546Z,0.00
2018-09-01T03:00:08.727Z,0.00
2018-09-01T03:01:08.915Z,0.00
2018-09-01T03:02:09.105Z,0.00
2018-09-01T03:03:09.292Z,0.00
2018-09-01T03:04:09.482Z,0.00
2018-09-01T03:05:09.667Z,0.00
2018-09-01T03:06:09.849Z,0.00
2018-09-01T03:07:10.035Z,0.00
2018-09-01T03:08:10.223Z,0.00
2018-09-01T03:09:10.412Z,0.00
2018-09-01T03:10:10.601Z,0.00
2018-09-01T03:11:10.788Z,0.00
2018-09-01T03:12:10.973Z,0.00
2018-09-01T03:13:11.157Z,0.00
2018-09-01T03:14:11.340Z,0.00
2018-09-01T03:15:11.527Z,0.00
2018-09-01T03:16:11.713Z,0.00
2018-09-01T03:17:11.899Z,0.00
2018-09-01T03:18:12.086Z,0.00
2018-09-01T03:19:12.269Z,0.00
2018-09-01T03:20:12.451Z,0.00
2018-09-01T03:21:12.644Z,0.00
2018-09-01T03:22:12.829Z,0.00
2018-09-01T03:23:13.014Z,0.00
2018-09-01T03:24:13.202Z,0.00
2018-09-01T03:25:13.388Z,0.00
2018-09-01T03:26:13.572Z,0.00
2018-09-01T03:27:13.761Z,0.00
2018-09-01T03:28:13.949Z,0.00
2018-09-01T03:29:14.130Z,0.00
2018-09-01T03:30:14.311Z,0.00
2018-09-01T03:31:14.500Z,0.00
2018-09-01T03:32:14.685Z,0.00
2018-09-01T03:33:14.864Z,0.00
2018-09-01T03:34:15.053Z,0.00
2018-09-01T03:35:15.233Z,0.00
2018-09-01T03:36:15.424Z,0.00
2018-09-01T03:37:15.610Z,0.00
2018-09-01T03:38:15.792Z,0.00
2018-09-01T03:39:15.980Z,0.00
2018-09-01T03:40:16.163Z,0.00
2018-09-01T03:41:16.349Z,0.00
2018-09-01T03:42:16.530Z,0.00
2018-09-01T03:43:16.723Z,0.00
2018-09-01T03:44:16.904Z,0.00
2018-09-01T03:45:17.090Z,0.00
2018-09-01T03:46:17.282Z,0.00
2018-09-01T03:47:17.468Z,0.00
2018-09-01T03:48:17.651Z,0.00
2018-09-01T03:49:17.838Z,0.00
2018-09-01T03:50:18.024Z,0.00
2018-09-01T03:51:18.207Z,0.00
2018-09-01T03:52:18.397Z,0.00
2018-09-01T03:53:18.580Z,0.00
2018-09-01T03:54:18.766Z,0.00
2018-09-01T03:55:18.950Z,0.00
2018-09-01T03:56:19.136Z,0.00
2018-09-01T03:57:19.322Z,0.00
2018-09-01T03:58:19.505Z,0.00
2018-09-01T03:59:19.695Z,0.00
2018-09-01T04:00:19.876Z,0.00
2018-09-01T04:01:20.064Z,0.00
2018-09-01T04:02:20.249Z,0.00
2018-09-01T04:03:20.434Z,0.00
2018-09-01T04:04:20.623Z,0.00
2018-09-01T04:05:20.804Z,0.00
2018-09-01T04:06:20.992Z,0.00
2018-09-01T04:07:21.178Z,0.00
2018-09-01T04:08:21.362Z,0.00
2018-09-01T04:09:21.549Z,0.00
2018-09-01T04:10:21.739Z,0.00
2018-09-01T04:11:21.914Z,0.00
2018-09-01T04:12:22.101Z,0.00
2018-09-01T04:13:22.284Z,0.00
2018-09-01T04:14:22.468Z,0.00
2018-09-01T04:15:22.659Z,0.00
2018-09-01T04:16:22.843Z,0.00
2018-09-01T04:17:23.022Z,0.00
2018-09-01T04:18:23.212Z,0.00
2018-09-01T04:19:23.409Z,0.00
2018-09-01T04:20:23.596Z,0.00
2018-09-01T04:21:23.780Z,5.63
2018-09-01T04:22:23.966Z,5.63
2018-09-01T04:23:24.173Z,5.63
2018-09-01T04:24:24.359Z,5.63
2018-09-01T04:25:24.549Z,5.63
2018-09-01T04:26:24.741Z,5.63
2018-09-01T04:27:24.927Z,11.25
2018-09-01T04:28:25.119Z,11.25
2018-09-01T04:29:25.313Z,11.25
2018-09-01T04:30:25.494Z,11.25
2018-09-01T04:31:25.679Z,16.88
2018-09-01T04:32:25.866Z,16.88
2018-09-01T04:33:26.053Z,16.88
2018-09-01T04:34:26.237Z,22.50
2018-09-01T04:35:26.426Z,22.50
2018-09-01T04:36:26.614Z,22.50
2018-09-01T04:37:26.807Z,28.13
2018-09-01T04:38:26.987Z,28.13
2018-09-01T04:39:27.170Z,33.75
2018-09-01T04:40:27.365Z,39.38
2018-09-01T04:41:27.555Z,39.38
2018-09-01T04:42:27.735Z,45.00
2018-09-01T04:43:27.926Z,45.00
2018-09-01T04:44:28.107Z,50.63
2018-09-01T04:45:28.306Z,50.63
2018-09-01T04:46:28.490Z,50.63
2018-09-01T04:47:28.683Z,50.63
2018-09-01T04:48:28.891Z,56.25
2018-09-01T04:49:29.057Z,56.25
2018-09-01T04:50:29.240Z,61.88
2018-09-01T04:51:29.431Z,67.50
2018-09-01T04:52:29.610Z,67.50
2018-09-01T04:53:29.795Z,73.13
2018-09-01T04:54:29.989Z,73.13
2018-09-01T04:55:30.170Z,78.75
2018-09-01T04:56:30.353Z,78.75
2018-09-01T04:57:30.544Z,84.38
2018-09-01T04:58:30.727Z,84.38
2018-09-01T04:59:30.907Z,84.38
2018-09-01T05:00:31.100Z,90.00
2018-09-01T05:01:31.280Z,95.63
2018-09-01T05:02:31.471Z,95.63
2018-09-01T05:03:31.660Z,95.63
2018-09-01T05:04:31.833Z,95.63
2018-09-01T05:05:32.023Z,101.25
2018-09-01T05:06:32.204Z,101.25
2018-09-01T05:07:32.392Z,101.25
2018-09-01T05:08:32.578Z,106.88
2018-09-01T05:09:32.765Z,106.88
2018-09-01T05:10:32.951Z,112.50
2018-09-01T05:11:33.139Z,118.13
2018-09-01T05:12:33.318Z,118.13
2018-09-01T05:13:33.502Z,123.75
2018-09-01T05:14:33.693Z,129.38
2018-09-01T05:15:33.883Z,135.00
2018-09-01T05:16:34.065Z,140.63
2018-09-01T05:17:34.253Z,151.88
2018-09-01T05:18:34.439Z,157.50
2018-09-01T05:19:34.639Z,168.75
2018-09-01T05:20:34.822Z,180.00
2018-09-01T05:21:35.024Z,191.25
2018-09-01T05:22:35.207Z,202.50
2018-09-01T05:23:35.390Z,213.75
2018-09-01T05:24:35.625Z,225.00
2018-09-01T05:25:35.762Z,236.25
2018-09-01T05:26:35.954Z,253.13
2018-09-01T05:27:36.136Z,275.63
2018-09-01T05:28:36.317Z,292.50
2018-09-01T05:29:36.508Z,309.38
2018-09-01T05:30:36.694Z,343.13
2018-09-01T05:31:36.893Z,382.50
2018-09-01T05:32:37.078Z,421.88
2018-09-01T05:33:37.268Z,444.38
2018-09-01T05:34:37.452Z,461.25
2018-09-01T05:35:37.633Z,478.13
2018-09-01T05:36:37.896Z,489.38
2018-09-01T05:37:38.017Z,540.00
2018-09-01T05:38:38.203Z,556.88
2018-09-01T05:39:38.393Z,517.50
2018-09-01T05:40:38.571Z,478.13
2018-09-01T05:41:38.760Z,478.13
2018-09-01T05:42:38.944Z,517.50
2018-09-01T05:43:39.146Z,545.63
2018-09-01T05:44:39.314Z,540.00
2018-09-01T05:45:39.517Z,528.75
2018-09-01T05:46:39.692Z,528.75
2018-09-01T05:47:39.875Z,641.25
2018-09-01T05:48:40.070Z,838.13
2018-09-01T05:49:40.254Z,748.13
2018-09-01T05:50:40.448Z,618.75
2018-09-01T05:51:40.634Z,725.63
2018-09-01T05:52:40.822Z,1158.75
2018-09-01T05:53:41.007Z,1726.88
2018-09-01T05:54:41.195Z,2188.13
2018-09-01T05:55:41.385Z,2261.25
2018-09-01T05:56:41.571Z,2328.75
2018-09-01T05:57:41.757Z,2452.50
2018-09-01T05:58:41.947Z,2295.00
2018-09-01T05:59:42.141Z,2030.63
2018-09-01T06:00:42.535Z,2171.25
2018-09-01T06:01:42.511Z,2086.88
2018-09-01T06:02:42.701Z,2160.00
2018-09-01T06:03:42.891Z,1867.50
2018-09-01T06:04:43.080Z,1850.63
2018-09-01T06:05:43.272Z,753.75
2018-09-01T06:06:43.455Z,613.13
2018-09-01T06:07:43.648Z,1271.25
2018-09-01T06:08:43.839Z,1575.00
2018-09-01T06:09:44.030Z,928.13
2018-09-01T06:10:44.219Z,579.38
2018-09-01T06:11:44.411Z,607.50
2018-09-01T06:12:44.599Z,753.75
2018-09-01T06:13:44.788Z,871.88
2018-09-01T06:14:44.982Z,1350.00
2018-09-01T06:15:45.179Z,2475.00
2018-09-01T06:16:45.364Z,3031.88
2018-09-01T06:17:45.687Z,3290.63
2018-09-01T06:18:45.752Z,2835.00
2018-09-01T06:19:45.944Z,3015.00
2018-09-01T06:20:46.136Z,2182.50
2018-09-01T06:21:46.322Z,781.88
2018-09-01T06:22:46.517Z,978.75
2018-09-01T06:23:46.749Z,2362.50
2018-09-01T06:24:46.938Z,3065.63
2018-09-01T06:25:47.090Z,2238.75
2018-09-01T06:26:47.284Z,1209.38
2018-09-01T06:27:47.476Z,714.38
2018-09-01T06:28:47.671Z,776.25
2018-09-01T06:29:47.865Z,3476.25
2018-09-01T06:30:48.057Z,1456.88
2018-09-01T06:31:48.249Z,928.13
2018-09-01T06:32:48.450Z,1074.38
2018-09-01T06:33:48.634Z,1361.25
2018-09-01T06:34:48.824Z,2053.13
2018-09-01T06:35:49.019Z,1608.75
2018-09-01T06:36:49.209Z,2880.00
2018-09-01T06:37:49.401Z,3279.38
2018-09-01T06:38:49.593Z,2396.25
2018-09-01T06:39:49.781Z,3195.00
2018-09-01T06:40:49.973Z,1704.38
2018-09-01T06:41:50.165Z,1406.25
2018-09-01T06:42:50.424Z,984.38
2018-09-01T06:43:50.570Z,905.63
2018-09-01T06:44:50.758Z,781.88
2018-09-01T06:45:50.959Z,731.25
2018-09-01T06:46:51.150Z,731.25
2018-09-01T06:47:51.342Z,753.75
2018-09-01T06:48:51.537Z,793.13
2018-09-01T06:49:51.727Z,871.88
2018-09-01T06:50:51.916Z,1524.38
2018-09-01T06:51:52.107Z,1985.63
2018-09-01T06:52:52.296Z,1957.50
2018-09-01T06:53:52.489Z,1400.63
2018-09-01T06:54:52.688Z,1108.13
2018-09-01T06:55:52.875Z,1018.13
2018-09-01T06:56:53.070Z,990.00
2018-09-01T06:57:53.255Z,1006.88
2018-09-01T06:58:53.441Z,2210.63
2018-09-01T06:59:53.633Z,1749.38
2018-09-01T07:00:53.825Z,2013.75
2018-09-01T07:01:54.031Z,1901.25
2018-09-01T07:02:54.223Z,1423.13
2018-09-01T07:03:54.403Z,1715.63
2018-09-01T07:04:54.594Z,1743.75
2018-09-01T07:05:54.785Z,1732.50
2018-09-01T07:06:54.971Z,2238.75
2018-09-01T07:07:55.176Z,2806.88
2018-09-01T07:08:55.364Z,4100.63
2018-09-01T07:09:55.552Z,3971.25
2018-09-01T07:10:55.746Z,4629.38
2018-09-01T07:11:55.936Z,4764.38
2018-09-01T07:12:56.132Z,4809.38
2018-09-01T07:13:56.319Z,4888.13
2018-09-01T07:14:56.513Z,4111.88
2018-09-01T07:15:56.707Z,3802.50
2018-09-01T07:16:56.909Z,3684.38
2018-09-01T07:17:57.104Z,3026.25
2018-09-01T07:18:57.296Z,4696.88
2018-09-01T07:19:57.503Z,4871.25
2018-09-01T07:20:57.692Z,5186.25
2018-09-01T07:21:57.889Z,5265.00
2018-09-01T07:22:58.084Z,5332.50
2018-09-01T07:23:58.275Z,5535.00
2018-09-01T07:24:58.474Z,5546.25
2018-09-01T07:25:58.682Z,5551.88
2018-09-01T07:26:58.876Z,5771.25
2018-09-01T07:27:59.075Z,5765.63
2018-09-01T07:28:59.266Z,4792.50
2018-09-01T07:29:59.468Z,4916.25
2018-09-01T07:31:00.051Z,4910.63
2018-09-01T07:31:59.865Z,4218.75
2018-09-01T07:33:00.072Z,2486.25
2018-09-01T07:34:00.264Z,3476.25
2018-09-01T07:35:00.472Z,4443.75
2018-09-01T07:36:00.682Z,3498.75
2018-09-01T07:37:00.880Z,3234.38
2018-09-01T07:38:01.090Z,2070.00
2018-09-01T07:39:01.281Z,1929.38
2018-09-01T07:40:01.482Z,2233.13
2018-09-01T07:41:01.677Z,2925.00
2018-09-01T07:42:01.877Z,3065.63
2018-09-01T07:43:02.094Z,2936.25
2018-09-01T07:44:02.294Z,3571.88
2018-09-01T07:45:02.493Z,3138.75
2018-09-01T07:46:02.689Z,2593.13
2018-09-01T07:47:02.888Z,2103.75
2018-09-01T07:48:03.092Z,2047.50
2018-09-01T07:49:03.289Z,3796.88
2018-09-01T07:50:03.501Z,3076.88
2018-09-01T07:51:03.686Z,2857.50
2018-09-01T07:52:03.883Z,1957.50
2018-09-01T07:53:04.076Z,1738.13
2018-09-01T07:54:04.276Z,3234.38
2018-09-01T07:55:04.477Z,3386.25
2018-09-01T07:56:04.777Z,4663.13
2018-09-01T07:57:04.872Z,5191.88
2018-09-01T07:58:05.081Z,5861.25
2018-09-01T07:59:05.272Z,5703.75
2018-09-01T08:00:05.479Z,5698.13
2018-09-01T08:01:05.677Z,5681.25
2018-09-01T08:02:05.870Z,5686.88
2018-09-01T08:03:06.066Z,5641.88
2018-09-01T08:04:06.262Z,5506.88
2018-09-01T08:05:06.472Z,5416.88
2018-09-01T08:06:06.667Z,5433.75
2018-09-01T08:07:06.862Z,5535.00
2018-09-01T08:08:07.064Z,5737.50
2018-09-01T08:09:07.270Z,5906.25
2018-09-01T08:10:07.461Z,6041.25
2018-09-01T08:11:07.665Z,6103.13
2018-09-01T08:12:07.867Z,6243.75
2018-09-01T08:13:08.067Z,6243.75
2018-09-01T08:14:08.298Z,6249.38
2018-09-01T08:15:08.477Z,6193.13
2018-09-01T08:16:08.673Z,6232.50
2018-09-01T08:17:08.883Z,6221.25
2018-09-01T08:18:09.085Z,6215.63
2018-09-01T08:19:09.310Z,6153.75
2018-09-01T08:20:09.510Z,6086.25
2018-09-01T08:21:09.722Z,6125.63
2018-09-01T08:22:09.925Z,6232.50
2018-09-01T08:23:10.125Z,6300.00
2018-09-01T08:24:10.333Z,6322.50
2018-09-01T08:25:10.536Z,6255.00
2018-09-01T08:26:10.837Z,6221.25
2018-09-01T08:27:10.959Z,6181.88
2018-09-01T08:28:11.159Z,6159.38
2018-09-01T08:29:11.372Z,6148.13
2018-09-01T08:30:11.577Z,6120.00
2018-09-01T08:31:11.794Z,6120.00
2018-09-01T08:32:12.007Z,6170.63
2018-09-01T08:33:12.205Z,6136.88
2018-09-01T08:34:12.406Z,6395.63
2018-09-01T08:35:12.618Z,6440.63
2018-09-01T08:36:12.818Z,6496.88
2018-09-01T08:37:13.022Z,6553.13
2018-09-01T08:38:13.223Z,6378.75
2018-09-01T08:39:13.434Z,6378.75
2018-09-01T08:40:13.685Z,6496.88
2018-09-01T08:41:13.836Z,6547.50
2018-09-01T08:42:14.042Z,6575.63
2018-09-01T08:43:14.249Z,6558.75
2018-09-01T08:44:14.447Z,6598.13
2018-09-01T08:45:14.661Z,6418.13
2018-09-01T08:46:14.854Z,6266.25
2018-09-01T08:47:15.058Z,6564.38
2018-09-01T08:48:15.262Z,6592.50
2018-09-01T08:49:15.478Z,6435.00
2018-09-01T08:50:15.681Z,6322.50
2018-09-01T08:51:15.885Z,6238.13
2018-09-01T08:52:16.093Z,6249.38
2018-09-01T08:53:16.296Z,6356.25
2018-09-01T08:54:16.499Z,6378.75
2018-09-01T08:55:16.706Z,6412.50
2018-09-01T08:56:16.907Z,6474.38
2018-09-01T08:57:17.111Z,6570.00
2018-09-01T08:58:17.318Z,6603.75
2018-09-01T08:59:17.540Z,6615.00
2018-09-01T09:00:17.722Z,6660.00
2018-09-01T09:01:17.928Z,6609.38
2018-09-01T09:02:18.139Z,6502.50
2018-09-01T09:03:18.338Z,6406.88
2018-09-01T09:04:18.546Z,6249.38
2018-09-01T09:05:18.773Z,6142.50
2018-09-01T09:06:18.963Z,6052.50
2018-09-01T09:07:19.176Z,6052.50
2018-09-01T09:08:19.385Z,6103.13
2018-09-01T09:09:19.584Z,6080.63
2018-09-01T09:10:19.787Z,6030.00
2018-09-01T09:11:19.998Z,5973.75
2018-09-01T09:12:20.197Z,5844.38
2018-09-01T09:13:20.406Z,5686.88
2018-09-01T09:14:20.608Z,5518.13
2018-09-01T09:15:20.817Z,5326.88
2018-09-01T09:16:21.019Z,5208.75
2018-09-01T09:17:21.222Z,5281.88
2018-09-01T09:18:21.421Z,5461.88
2018-09-01T09:19:21.637Z,5653.13
2018-09-01T09:20:21.832Z,5861.25
2018-09-01T09:21:22.085Z,5973.75
2018-09-01T09:22:22.307Z,6187.50
2018-09-01T09:23:22.506Z,6142.50
2018-09-01T09:24:22.711Z,6215.63
2018-09-01T09:25:22.917Z,6367.50
2018-09-01T09:26:23.117Z,6435.00
2018-09-01T09:27:23.319Z,6446.25
2018-09-01T09:28:23.526Z,6474.38
2018-09-01T09:29:23.732Z,6361.88
2018-09-01T09:30:23.940Z,6513.75
2018-09-01T09:31:24.139Z,6238.13
2018-09-01T09:32:24.343Z,6412.50
2018-09-01T09:33:24.542Z,6373.13
2018-09-01T09:34:24.812Z,6390.00
2018-09-01T09:35:24.964Z,6322.50
2018-09-01T09:36:25.176Z,6249.38
2018-09-01T09:37:25.377Z,6322.50
2018-09-01T09:38:25.573Z,6288.75
2018-09-01T09:39:25.779Z,6316.88
2018-09-01T09:40:25.990Z,6356.25
2018-09-01T09:41:26.199Z,6373.13
2018-09-01T09:42:26.402Z,6300.00
2018-09-01T09:43:26.605Z,6496.88
2018-09-01T09:44:26.822Z,6496.88
2018-09-01T09:45:27.004Z,6401.25
2018-09-01T09:46:27.230Z,6474.38
2018-09-01T09:47:27.431Z,6356.25
2018-09-01T09:48:27.640Z,6181.88
2018-09-01T09:49:27.844Z,5923.13
2018-09-01T09:50:28.046Z,5681.25
2018-09-01T09:51:28.267Z,5208.75
2018-09-01T09:52:28.473Z,4961.25
2018-09-01T09:53:28.677Z,4786.88
2018-09-01T09:54:28.911Z,4590.00
2018-09-01T09:55:29.094Z,4561.88
2018-09-01T09:56:29.297Z,4696.88
2018-09-01T09:57:29.507Z,4854.38
2018-09-01T09:58:29.728Z,4989.38
2018-09-01T09:59:29.933Z,5062.50
2018-09-01T10:00:30.141Z,5124.38
2018-09-01T10:01:30.341Z,5152.50
2018-09-01T10:02:30.557Z,5056.88
2018-09-01T10:03:30.762Z,4882.50
2018-09-01T10:04:30.974Z,4758.75
2018-09-01T10:05:31.184Z,4606.88
2018-09-01T10:06:31.376Z,4533.75
2018-09-01T10:07:31.577Z,4471.88
2018-09-01T10:08:31.795Z,4398.75
2018-09-01T10:09:31.998Z,4353.75
2018-09-01T10:10:32.194Z,4331.25
2018-09-01T10:11:32.399Z,4387.50
2018-09-01T10:12:32.602Z,4494.38
2018-09-01T10:13:32.807Z,4567.50
2018-09-01T10:14:33.007Z,4606.88
2018-09-01T10:15:33.222Z,4657.50
2018-09-01T10:16:33.414Z,4691.25
2018-09-01T10:17:33.618Z,4837.50
2018-09-01T10:18:33.867Z,4944.38
2018-09-01T10:19:34.036Z,4516.88
2018-09-01T10:20:34.336Z,1406.25
2018-09-01T10:21:34.451Z,3903.75
2018-09-01T10:22:34.658Z,4556.25
2018-09-01T10:23:34.861Z,4443.75
2018-09-01T10:24:35.053Z,4336.88
2018-09-01T10:25:35.251Z,4336.88
2018-09-01T10:26:35.461Z,1423.13
2018-09-01T10:27:35.660Z,4449.38
2018-09-01T10:28:35.884Z,4471.88
2018-09-01T10:29:36.076Z,4398.75
2018-09-01T10:30:36.279Z,1147.50
2018-09-01T10:31:36.482Z,4252.50
2018-09-01T10:32:36.690Z,4398.75
2018-09-01T10:33:36.893Z,4314.38
2018-09-01T10:34:37.102Z,4314.38
2018-09-01T10:35:37.298Z,4381.88
2018-09-01T10:36:37.523Z,4432.50
2018-09-01T10:37:37.699Z,4539.38
2018-09-01T10:38:37.984Z,4657.50
2018-09-01T10:39:38.109Z,1445.63
2018-09-01T10:40:38.307Z,1282.50
2018-09-01T10:41:38.510Z,2165.63
2018-09-01T10:42:38.717Z,1231.88
2018-09-01T10:43:38.943Z,1209.38
2018-09-01T10:44:39.149Z,1276.88
2018-09-01T10:45:39.349Z,2851.88
2018-09-01T10:46:39.552Z,1518.75
2018-09-01T10:47:39.756Z,1378.13
2018-09-01T10:48:39.955Z,1288.13
2018-09-01T10:49:40.156Z,1231.88
2018-09-01T10:50:40.357Z,1046.25
2018-09-01T10:51:40.554Z,1063.13
2018-09-01T10:52:40.765Z,1681.88
2018-09-01T10:53:40.954Z,3358.13
2018-09-01T10:54:41.153Z,1845.00
2018-09-01T10:55:41.358Z,1451.25
2018-09-01T10:56:41.558Z,5641.88
2018-09-01T10:57:41.763Z,5467.50
2018-09-01T10:58:41.966Z,5450.63
2018-09-01T10:59:42.295Z,4449.38
2018-09-01T11:00:42.367Z,5287.50
2018-09-01T11:01:42.567Z,5400.00
2018-09-01T11:02:42.782Z,5366.25
2018-09-01T11:03:42.993Z,5332.50
2018-09-01T11:04:43.201Z,3279.38
2018-09-01T11:05:43.455Z,1040.63
2018-09-01T11:06:43.588Z,1051.88
2018-09-01T11:07:43.814Z,1344.38
2018-09-01T11:08:44.021Z,1361.25
2018-09-01T11:09:44.223Z,5343.75
2018-09-01T11:10:44.436Z,3200.63
2018-09-01T11:11:44.643Z,1231.88
2018-09-01T11:12:44.839Z,1164.38
2018-09-01T11:13:45.058Z,1912.50
2018-09-01T11:14:45.247Z,1102.50
2018-09-01T11:15:45.466Z,1074.38
2018-09-01T11:16:45.658Z,5079.38
2018-09-01T11:17:45.875Z,5006.25
2018-09-01T11:18:46.042Z,1130.63
2018-09-01T11:19:46.286Z,3780.00
2018-09-01T11:20:46.468Z,4893.75
2018-09-01T11:21:46.692Z,4854.38
2018-09-01T11:22:46.864Z,4843.13
2018-09-01T11:23:47.072Z,4786.88
2018-09-01T11:24:47.290Z,4708.13
2018-09-01T11:25:47.502Z,4646.25
2018-09-01T11:26:47.705Z,4556.25
2018-09-01T11:27:47.989Z,4561.88
2018-09-01T11:28:48.151Z,4511.25
2018-09-01T11:29:48.354Z,3628.13
2018-09-01T11:30:48.548Z,4393.13
2018-09-01T11:31:48.766Z,4426.88
2018-09-01T11:32:48.970Z,4426.88
2018-09-01T11:33:49.166Z,4381.88
2018-09-01T11:34:49.402Z,4370.63
2018-09-01T11:35:49.562Z,3555.00
2018-09-01T11:36:49.811Z,2193.75
2018-09-01T11:37:49.961Z,1164.38
2018-09-01T11:38:50.159Z,933.75
2018-09-01T11:39:50.358Z,838.13
2018-09-01T11:40:50.560Z,1102.50
2018-09-01T11:41:50.751Z,1068.75
2018-09-01T11:42:51.029Z,1051.88
2018-09-01T11:43:51.160Z,1035.00
2018-09-01T11:44:51.385Z,748.13
2018-09-01T11:45:51.575Z,1012.50
2018-09-01T11:46:51.777Z,849.38
2018-09-01T11:47:51.986Z,781.88
2018-09-01T11:48:52.171Z,1046.25
2018-09-01T11:49:52.394Z,995.63
2018-09-01T11:50:52.579Z,984.38
2018-09-01T11:51:52.785Z,967.50
2018-09-01T11:52:52.982Z,956.25
2018-09-01T11:53:53.187Z,950.63
2018-09-01T11:54:53.378Z,945.00
2018-09-01T11:55:53.582Z,945.00
2018-09-01T11:56:53.773Z,933.75
2018-09-01T11:57:53.973Z,928.13
2018-09-01T11:58:54.283Z,916.88
2018-09-01T11:59:54.395Z,911.25
2018-09-01T12:00:54.566Z,900.00
2018-09-01T12:01:54.757Z,894.38
2018-09-01T12:02:54.954Z,883.13
2018-09-01T12:03:55.150Z,877.50
2018-09-01T12:04:55.351Z,871.88
2018-09-01T12:05:55.546Z,866.25
2018-09-01T12:06:55.745Z,860.63
2018-09-01T12:07:55.940Z,849.38
2018-09-01T12:08:56.168Z,843.75
2018-09-01T12:09:56.341Z,838.13
2018-09-01T12:10:56.534Z,832.50
2018-09-01T12:11:56.747Z,826.88
2018-09-01T12:12:56.949Z,815.63
2018-09-01T12:13:57.146Z,815.63
2018-09-01T12:14:57.338Z,810.00
2018-09-01T12:15:57.576Z,804.38
2018-09-01T12:16:57.734Z,804.38
2018-09-01T12:17:57.929Z,804.38
2018-09-01T12:18:58.124Z,793.13
2018-09-01T12:19:58.324Z,787.50
2018-09-01T12:20:58.523Z,793.13
2018-09-01T12:21:58.705Z,787.50
2018-09-01T12:22:58.905Z,781.88
2018-09-01T12:23:59.113Z,781.88
2018-09-01T12:24:59.313Z,781.88
2018-09-01T12:25:59.507Z,776.25
2018-09-01T12:26:59.704Z,770.63
2018-09-01T12:27:59.897Z,770.63
2018-09-01T12:29:00.104Z,770.63
2018-09-01T12:30:00.310Z,770.63
2018-09-01T12:31:00.495Z,770.63
2018-09-01T12:32:00.687Z,765.00
2018-09-01T12:33:00.883Z,765.00
2018-09-01T12:34:01.079Z,765.00
2018-09-01T12:35:01.275Z,759.38
2018-09-01T12:36:01.498Z,759.38
2018-09-01T12:37:01.687Z,753.75
2018-09-01T12:38:01.876Z,753.75
2018-09-01T12:39:02.073Z,753.75